Huaquan222 — BSOX — position and weather

sailwx.info

Track history (hours):
 
Tides and Currents Weather Stations Pressure Air Temp Water Temp Dewpoint Dewpoint Depression Visibility Wind Speed Wind Dir Waves Ship Positions

Huaquan222

Last reported at 2015-Mar-29 01:10 UTC. Time now 2015-Mar-29 03:12 UTC.
Position N 22°17' E 113°50'.

Length 67 m; draft 2.1 m.

Type: Dredging. MMSI: 413467440.

Date/timePositionNaut miles runAvg speedWind from/ knotsBaromVisibWave heightAir tempDewpointWater temp
2015-Mar-29 01:10N 22°17' E 113°50'3 5.1
2015-Mar-29 00:33N 22°15' E 113°47'5 5.1
2015-Mar-28 23:33N 22°11' E 113°44'6 1.5
2015-Mar-28 19:33N 22°16' E 113°48'2 0.8
2015-Mar-28 17:22N 22°17' E 113°50'1 0.2
2015-Mar-28 11:33N 22°16' E 113°48'2 0.2
2015-Mar-28 03:33N 22°18' E 113°49'0 0.0
2015-Mar-27 22:33N 22°18' E 113°49'0 0.1
2015-Mar-27 21:20N 22°18' E 113°49'0 0.0
2015-Mar-27 20:33N 22°18' E 113°49'0 0.0
2015-Mar-27 19:30N 22°18' E 113°49'0 0.0
2015-Mar-27 15:32N 22°18' E 113°49'0 0.0
2015-Mar-27 14:33N 22°18' E 113°49'0 0.0
2015-Mar-27 13:32N 22°18' E 113°49'0 0.0
2015-Mar-27 12:32N 22°18' E 113°49'0 0.0
2015-Mar-27 09:15N 22°18' E 113°49'1 1.8
2015-Mar-27 08:33N 22°16' E 113°49'0 0.0
2015-Mar-27 07:18N 22°16' E 113°49'0 0.1
2015-Mar-27 06:30N 22°16' E 113°49'0 0.0
2015-Mar-27 05:29N 22°16' E 113°49'0 0.0
2015-Mar-27 04:13N 22°16' E 113°49'0 0.1
2015-Mar-27 03:08N 22°16' E 113°49'0 0.1
2015-Mar-27 02:11N 22°16' E 113°49'0 0.0
2015-Mar-27 01:33N 22°16' E 113°49'1 1.0
2015-Mar-27 00:28N 22°17' E 113°49'0 0.0
2015-Mar-26 23:33N 22°17' E 113°49'0 0.0
2015-Mar-26 22:33N 22°17' E 113°49'0 0.0
2015-Mar-26 21:33N 22°17' E 113°49'0 0.0
2015-Mar-26 20:09N 22°17' E 113°49'0 0.0
2015-Mar-26 07:09N 22°17' E 113°49'0 0.0
2015-Mar-26 05:33N 22°18' E 113°49'0 0.0
2015-Mar-26 04:31N 22°18' E 113°49'0 0.0
2015-Mar-26 03:33N 22°18' E 113°49'0 0.0
2015-Mar-26 02:33N 22°18' E 113°49'0 0.1
2015-Mar-26 01:33N 22°17' E 113°49'0 0.0
2015-Mar-26 00:33N 22°17' E 113°49'0 0.0
2015-Mar-25 23:33N 22°17' E 113°49'0 0.0
2015-Mar-25 22:28N 22°17' E 113°49'0 0.0
2015-Mar-25 00:15N 22°17' E 113°49'0 0.0
2015-Mar-24 23:29N 22°17' E 113°49'0 0.1
2015-Mar-24 22:20N 22°17' E 113°49'0 0.0
2015-Mar-24 21:33N 22°17' E 113°49'0 0.0
2015-Mar-24 20:22N 22°17' E 113°49'0 0.0
2015-Mar-24 19:33N 22°17' E 113°49'0 0.0
2015-Mar-24 18:29N 22°17' E 113°49'0 0.0
2015-Mar-24 14:33N 22°18' E 113°49'0 0.0
2015-Mar-24 11:22N 22°17' E 113°49'0 0.0
2015-Mar-24 04:27N 22°18' E 113°49'0 0.0
2015-Mar-24 03:33N 22°18' E 113°49'0 0.0
2015-Mar-24 02:30N 22°18' E 113°49'0 0.0
2015-Mar-23 21:33N 22°17' E 113°49'0 0.0
2015-Mar-23 20:33N 22°17' E 113°49'0 0.0
2015-Mar-23 19:33N 22°17' E 113°49'0 0.0
2015-Mar-23 16:31N 22°18' E 113°49'0 0.0
2015-Mar-23 15:31N 22°18' E 113°49'0 0.0
2015-Mar-23 14:34N 22°18' E 113°49'0 0.0
2015-Mar-23 13:33N 22°18' E 113°49'0 0.0
2015-Mar-23 11:28N 22°17' E 113°49'0 0.0
2015-Mar-23 10:33N 22°17' E 113°49'0 0.0
2015-Mar-23 09:28N 22°17' E 113°49'0 0.0
2015-Mar-23 08:32N 22°17' E 113°49'0 0.0
2015-Mar-23 07:33N 22°17' E 113°49'0 0.0
2015-Mar-23 06:33N 22°17' E 113°49'0 0.0
2015-Mar-23 04:05N 22°18' E 113°49'0 0.0
2015-Mar-23 03:32N 22°18' E 113°49'0 0.0
2015-Mar-23 02:20N 22°18' E 113°49'0 0.0
2015-Mar-22 23:32N 22°17' E 113°49'0 0.0
2015-Mar-22 22:04N 22°17' E 113°49'0 0.0
2015-Mar-22 18:32N 22°17' E 113°49'0 0.0
2015-Mar-22 17:20N 22°17' E 113°49'0 0.0
2015-Mar-22 15:17N 22°18' E 113°49'0 0.0
2015-Mar-22 14:26N 22°18' E 113°49'0 0.0
2015-Mar-22 13:33N 22°18' E 113°49'0 0.0
2015-Mar-22 12:16N 22°18' E 113°49'0 0.0
2015-Mar-22 10:04N 22°17' E 113°49'0 0.0
2015-Mar-22 09:31N 22°17' E 113°49'0 0.0
2015-Mar-22 08:33N 22°17' E 113°49'0 0.0
2015-Mar-22 07:33N 22°17' E 113°49'0 0.0
2015-Mar-22 06:33N 22°17' E 113°49'0 0.0
2015-Mar-22 05:33N 22°17' E 113°49'0 0.0
2015-Mar-22 03:20N 22°18' E 113°49'0 0.0
2015-Mar-22 02:14N 22°18' E 113°49'0 0.0
2015-Mar-22 01:27N 22°18' E 113°49'0 0.0
2015-Mar-22 00:08N 22°18' E 113°49'0 0.0
2015-Mar-21 21:33N 22°17' E 113°49'0 0.0
2015-Mar-21 20:33N 22°17' E 113°49'0 0.0
2015-Mar-21 19:33N 22°17' E 113°49'0 0.0
2015-Mar-21 18:33N 22°17' E 113°49'0 0.0
2015-Mar-21 17:33N 22°17' E 113°49'0 0.0
2015-Mar-21 13:11N 22°18' E 113°49'0 0.0
2015-Mar-21 12:33N 22°18' E 113°49'0 0.0
2015-Mar-21 11:32N 22°18' E 113°49'0 0.0
2015-Mar-21 09:26N 22°17' E 113°49'0 0.0
2015-Mar-21 08:33N 22°17' E 113°49'0 0.0
2015-Mar-21 07:33N 22°17' E 113°49'0 0.0
2015-Mar-21 06:29N 22°17' E 113°49'0 0.0
2015-Mar-21 05:31N 22°17' E 113°49'0 0.0
2015-Mar-21 02:30N 22°18' E 113°49'0 0.0
2015-Mar-21 01:33N 22°18' E 113°49'0 0.0
2015-Mar-21 00:32N 22°18' E 113°49'0 0.0
2015-Mar-20 23:32N 22°18' E 113°49'0 0.0
2015-Mar-20 21:23N 22°17' E 113°49'0 0.0
2015-Mar-20 20:33N 22°17' E 113°49'0 0.0
2015-Mar-20 18:33N 22°17' E 113°49'0 0.0
2015-Mar-20 17:33N 22°17' E 113°49'0 0.0
2015-Mar-20 16:32N 22°17' E 113°49'0 0.0
2015-Mar-20 14:33N 22°18' E 113°49'0 0.0
2015-Mar-20 12:31N 22°18' E 113°49'0 0.0
2015-Mar-20 11:26N 22°18' E 113°49'0 0.0
2015-Mar-20 10:33N 22°18' E 113°49'0 0.1
2015-Mar-20 09:29N 22°18' E 113°49'0 0.1
2015-Mar-20 08:33N 22°17' E 113°49'0 0.0
2015-Mar-20 07:29N 22°17' E 113°49'0 0.0
2015-Mar-20 06:33N 22°17' E 113°49'0 0.0
2015-Mar-20 05:33N 22°17' E 113°49'0 0.0
2015-Mar-20 04:31N 22°17' E 113°49'0 0.0
2015-Mar-20 01:33N 22°18' E 113°49'0 0.0
2015-Mar-20 00:29N 22°18' E 113°49'0 0.0
2015-Mar-19 23:31N 22°18' E 113°49'0 0.0
2015-Mar-19 20:24N 22°17' E 113°49'0 0.0
2015-Mar-19 19:33N 22°17' E 113°49'0 0.0
2015-Mar-19 18:28N 22°17' E 113°49'0 0.0
2015-Mar-19 17:30N 22°17' E 113°49'0 0.0
2015-Mar-19 14:05N 22°18' E 113°49'0 0.0
2015-Mar-19 13:32N 22°18' E 113°49'0 0.0
2015-Mar-19 12:17N 22°18' E 113°49'0 0.0
2015-Mar-19 11:31N 22°18' E 113°49'0 0.0
2015-Mar-19 10:29N 22°18' E 113°49'0 0.0
2015-Mar-19 09:30N 22°18' E 113°49'0 0.1
2015-Mar-19 07:16N 22°17' E 113°49'0 0.0
2015-Mar-19 06:27N 22°17' E 113°49'0 0.0
2015-Mar-19 05:32N 22°17' E 113°49'0 0.0
2015-Mar-19 04:10N 22°17' E 113°49'0 0.0
2015-Mar-19 03:30N 22°17' E 113°49'0 0.0
2015-Mar-19 01:28N 22°18' E 113°49'  
Track history (hours):
 
Tides and Currents Weather Stations Pressure Air Temp Water Temp Dewpoint Dewpoint Depression Visibility Wind Speed Wind Dir Waves Ship Positions

Huaquan222

Last reported at 2015-Mar-29 01:10 UTC. Time now 2015-Mar-29 03:12 UTC.
Position N 22°17' E 113°50'.

Length 67 m; draft 2.1 m.

Type: Dredging. MMSI: 413467440.

Date/timePositionNaut miles runAvg speedWind from/ knotsBaromVisibWave heightAir tempDewpointWater temp
2015-Mar-29 01:10N 22°17' E 113°50'3 5.1
2015-Mar-29 00:33N 22°15' E 113°47'5 5.1
2015-Mar-28 23:33N 22°11' E 113°44'6 1.5
2015-Mar-28 19:33N 22°16' E 113°48'2 0.8
2015-Mar-28 17:22N 22°17' E 113°50'1 0.2
2015-Mar-28 11:33N 22°16' E 113°48'2 0.2
2015-Mar-28 03:33N 22°18' E 113°49'0 0.0
2015-Mar-27 22:33N 22°18' E 113°49'0 0.1
2015-Mar-27 21:20N 22°18' E 113°49'0 0.0
2015-Mar-27 20:33N 22°18' E 113°49'0 0.0
2015-Mar-27 19:30N 22°18' E 113°49'0 0.0
2015-Mar-27 15:32N 22°18' E 113°49'0 0.0
2015-Mar-27 14:33N 22°18' E 113°49'0 0.0
2015-Mar-27 13:32N 22°18' E 113°49'0 0.0
2015-Mar-27 12:32N 22°18' E 113°49'0 0.0
2015-Mar-27 09:15N 22°18' E 113°49'1 1.8
2015-Mar-27 08:33N 22°16' E 113°49'0 0.0
2015-Mar-27 07:18N 22°16' E 113°49'0 0.1
2015-Mar-27 06:30N 22°16' E 113°49'0 0.0
2015-Mar-27 05:29N 22°16' E 113°49'0 0.0
2015-Mar-27 04:13N 22°16' E 113°49'0 0.1
2015-Mar-27 03:08N 22°16' E 113°49'0 0.1
2015-Mar-27 02:11N 22°16' E 113°49'0 0.0
2015-Mar-27 01:33N 22°16' E 113°49'1 1.0
2015-Mar-27 00:28N 22°17' E 113°49'0 0.0
2015-Mar-26 23:33N 22°17' E 113°49'0 0.0
2015-Mar-26 22:33N 22°17' E 113°49'0 0.0
2015-Mar-26 21:33N 22°17' E 113°49'0 0.0
2015-Mar-26 20:09N 22°17' E 113°49'0 0.0
2015-Mar-26 07:09N 22°17' E 113°49'0 0.0
2015-Mar-26 05:33N 22°18' E 113°49'0 0.0
2015-Mar-26 04:31N 22°18' E 113°49'0 0.0
2015-Mar-26 03:33N 22°18' E 113°49'0 0.0
2015-Mar-26 02:33N 22°18' E 113°49'0 0.1
2015-Mar-26 01:33N 22°17' E 113°49'0 0.0
2015-Mar-26 00:33N 22°17' E 113°49'0 0.0
2015-Mar-25 23:33N 22°17' E 113°49'0 0.0
2015-Mar-25 22:28N 22°17' E 113°49'0 0.0
2015-Mar-25 00:15N 22°17' E 113°49'0 0.0
2015-Mar-24 23:29N 22°17' E 113°49'0 0.1
2015-Mar-24 22:20N 22°17' E 113°49'0 0.0
2015-Mar-24 21:33N 22°17' E 113°49'0 0.0
2015-Mar-24 20:22N 22°17' E 113°49'0 0.0
2015-Mar-24 19:33N 22°17' E 113°49'0 0.0
2015-Mar-24 18:29N 22°17' E 113°49'0 0.0
2015-Mar-24 14:33N 22°18' E 113°49'0 0.0
2015-Mar-24 11:22N 22°17' E 113°49'0 0.0
2015-Mar-24 04:27N 22°18' E 113°49'0 0.0
2015-Mar-24 03:33N 22°18' E 113°49'0 0.0
2015-Mar-24 02:30N 22°18' E 113°49'0 0.0
2015-Mar-23 21:33N 22°17' E 113°49'0 0.0
2015-Mar-23 20:33N 22°17' E 113°49'0 0.0
2015-Mar-23 19:33N 22°17' E 113°49'0 0.0
2015-Mar-23 16:31N 22°18' E 113°49'0 0.0
2015-Mar-23 15:31N 22°18' E 113°49'0 0.0
2015-Mar-23 14:34N 22°18' E 113°49'0 0.0
2015-Mar-23 13:33N 22°18' E 113°49'0 0.0
2015-Mar-23 11:28N 22°17' E 113°49'0 0.0
2015-Mar-23 10:33N 22°17' E 113°49'0 0.0
2015-Mar-23 09:28N 22°17' E 113°49'0 0.0
2015-Mar-23 08:32N 22°17' E 113°49'0 0.0
2015-Mar-23 07:33N 22°17' E 113°49'0 0.0
2015-Mar-23 06:33N 22°17' E 113°49'0 0.0
2015-Mar-23 04:05N 22°18' E 113°49'0 0.0
2015-Mar-23 03:32N 22°18' E 113°49'0 0.0
2015-Mar-23 02:20N 22°18' E 113°49'0 0.0
2015-Mar-22 23:32N 22°17' E 113°49'0 0.0
2015-Mar-22 22:04N 22°17' E 113°49'0 0.0
2015-Mar-22 18:32N 22°17' E 113°49'0 0.0
2015-Mar-22 17:20N 22°17' E 113°49'0 0.0
2015-Mar-22 15:17N 22°18' E 113°49'0 0.0
2015-Mar-22 14:26N 22°18' E 113°49'0 0.0
2015-Mar-22 13:33N 22°18' E 113°49'0 0.0
2015-Mar-22 12:16N 22°18' E 113°49'0 0.0
2015-Mar-22 10:04N 22°17' E 113°49'0 0.0
2015-Mar-22 09:31N 22°17' E 113°49'0 0.0
2015-Mar-22 08:33N 22°17' E 113°49'0 0.0
2015-Mar-22 07:33N 22°17' E 113°49'0 0.0
2015-Mar-22 06:33N 22°17' E 113°49'0 0.0
2015-Mar-22 05:33N 22°17' E 113°49'0 0.0
2015-Mar-22 03:20N 22°18' E 113°49'0 0.0
2015-Mar-22 02:14N 22°18' E 113°49'0 0.0
2015-Mar-22 01:27N 22°18' E 113°49'0 0.0
2015-Mar-22 00:08N 22°18' E 113°49'0 0.0
2015-Mar-21 21:33N 22°17' E 113°49'0 0.0
2015-Mar-21 20:33N 22°17' E 113°49'0 0.0
2015-Mar-21 19:33N 22°17' E 113°49'0 0.0
2015-Mar-21 18:33N 22°17' E 113°49'0 0.0
2015-Mar-21 17:33N 22°17' E 113°49'0 0.0
2015-Mar-21 13:11N 22°18' E 113°49'0 0.0
2015-Mar-21 12:33N 22°18' E 113°49'0 0.0
2015-Mar-21 11:32N 22°18' E 113°49'0 0.0
2015-Mar-21 09:26N 22°17' E 113°49'0 0.0
2015-Mar-21 08:33N 22°17' E 113°49'0 0.0
2015-Mar-21 07:33N 22°17' E 113°49'0 0.0
2015-Mar-21 06:29N 22°17' E 113°49'0 0.0
2015-Mar-21 05:31N 22°17' E 113°49'0 0.0
2015-Mar-21 02:30N 22°18' E 113°49'0 0.0
2015-Mar-21 01:33N 22°18' E 113°49'0 0.0
2015-Mar-21 00:32N 22°18' E 113°49'0 0.0
2015-Mar-20 23:32N 22°18' E 113°49'0 0.0
2015-Mar-20 21:23N 22°17' E 113°49'0 0.0
2015-Mar-20 20:33N 22°17' E 113°49'0 0.0
2015-Mar-20 18:33N 22°17' E 113°49'0 0.0
2015-Mar-20 17:33N 22°17' E 113°49'0 0.0
2015-Mar-20 16:32N 22°17' E 113°49'0 0.0
2015-Mar-20 14:33N 22°18' E 113°49'0 0.0
2015-Mar-20 12:31N 22°18' E 113°49'0 0.0
2015-Mar-20 11:26N 22°18' E 113°49'0 0.0
2015-Mar-20 10:33N 22°18' E 113°49'0 0.1
2015-Mar-20 09:29N 22°18' E 113°49'0 0.1
2015-Mar-20 08:33N 22°17' E 113°49'0 0.0
2015-Mar-20 07:29N 22°17' E 113°49'0 0.0
2015-Mar-20 06:33N 22°17' E 113°49'0 0.0
2015-Mar-20 05:33N 22°17' E 113°49'0 0.0
2015-Mar-20 04:31N 22°17' E 113°49'0 0.0
2015-Mar-20 01:33N 22°18' E 113°49'0 0.0
2015-Mar-20 00:29N 22°18' E 113°49'0 0.0
2015-Mar-19 23:31N 22°18' E 113°49'0 0.0
2015-Mar-19 20:24N 22°17' E 113°49'0 0.0
2015-Mar-19 19:33N 22°17' E 113°49'0 0.0
2015-Mar-19 18:28N 22°17' E 113°49'0 0.0
2015-Mar-19 17:30N 22°17' E 113°49'0 0.0
2015-Mar-19 14:05N 22°18' E 113°49'0 0.0
2015-Mar-19 13:32N 22°18' E 113°49'0 0.0
2015-Mar-19 12:17N 22°18' E 113°49'0 0.0
2015-Mar-19 11:31N 22°18' E 113°49'0 0.0
2015-Mar-19 10:29N 22°18' E 113°49'0 0.0
2015-Mar-19 09:30N 22°18' E 113°49'0 0.1
2015-Mar-19 07:16N 22°17' E 113°49'0 0.0
2015-Mar-19 06:27N 22°17' E 113°49'0 0.0
2015-Mar-19 05:32N 22°17' E 113°49'0 0.0
2015-Mar-19 04:10N 22°17' E 113°49'0 0.0
2015-Mar-19 03:30N 22°17' E 113°49'0 0.0
2015-Mar-19 01:28N 22°18' E 113°49'  

Dump ship's entire track history